createdAt,value
2022-11-06T00:00:09.683Z,10.38
2022-11-06T00:02:37.523Z,10.40
2022-11-06T00:05:20.009Z,10.52
2022-11-06T00:07:49.232Z,10.35
2022-11-06T00:10:18.236Z,10.45
2022-11-06T00:12:46.410Z,10.11
2022-11-06T00:15:14.216Z,10.24
2022-11-06T00:17:42.351Z,10.27
2022-11-06T00:20:10.929Z,10.46
2022-11-06T00:22:39.248Z,10.20
2022-11-06T00:25:09.276Z,10.25
2022-11-06T00:27:37.233Z,10.20
2022-11-06T00:30:06.539Z,10.12
2022-11-06T00:32:34.272Z,10.20
2022-11-06T00:35:03.596Z,10.20
2022-11-06T00:37:31.361Z,10.09
2022-11-06T00:39:59.817Z,10.25
2022-11-06T00:42:28.883Z,10.16
2022-11-06T00:44:56.623Z,10.10
2022-11-06T00:47:24.646Z,10.27
2022-11-06T00:49:52.381Z,10.19
2022-11-06T00:52:20.151Z,10.12
2022-11-06T00:54:47.880Z,10.17
2022-11-06T00:57:15.598Z,10.14
2022-11-06T00:59:44.664Z,10.07
2022-11-06T01:02:12.509Z,10.07
2022-11-06T01:04:40.372Z,10.13
2022-11-06T01:07:08.087Z,10.00
2022-11-06T01:09:35.879Z,10.04
2022-11-06T01:12:18.935Z,9.97
2022-11-06T01:14:48.041Z,10.00
2022-11-06T01:17:15.764Z,10.12
2022-11-06T01:19:43.517Z,10.19
2022-11-06T01:22:11.280Z,10.10
2022-11-06T01:24:39.104Z,10.09
2022-11-06T01:29:57.789Z,10.18
2022-11-06T01:32:25.529Z,10.18
2022-11-06T01:34:53.328Z,10.14
2022-11-06T01:37:21.056Z,10.14
2022-11-06T01:39:50.009Z,10.17
2022-11-06T01:42:20.790Z,10.19
2022-11-06T01:45:24.644Z,10.24
2022-11-06T01:47:52.616Z,10.20
2022-11-06T01:50:20.535Z,10.12
2022-11-06T01:52:50.180Z,10.24
2022-11-06T01:55:22.257Z,10.13
2022-11-06T01:57:50.075Z,10.18
2022-11-06T02:00:43.636Z,10.13
2022-11-06T02:03:37.158Z,10.15
2022-11-06T02:06:05.792Z,10.27
2022-11-06T02:08:33.550Z,10.27
2022-11-06T02:11:01.340Z,10.25
2022-11-06T02:13:38.300Z,10.25
2022-11-06T02:16:13.712Z,10.32
2022-11-06T02:18:51.404Z,10.27
2022-11-06T02:21:32.352Z,10.17
2022-11-06T02:24:15.025Z,10.22
2022-11-06T02:26:54.996Z,10.43
2022-11-06T02:29:28.541Z,10.31
2022-11-06T02:31:57.267Z,10.33
2022-11-06T02:34:26.515Z,10.24
2022-11-06T02:36:58.004Z,10.23
2022-11-06T02:39:27.392Z,10.28
2022-11-06T02:41:58.817Z,10.26
2022-11-06T02:44:29.182Z,10.37
2022-11-06T02:47:01.075Z,10.42
2022-11-06T02:49:32.708Z,10.37
2022-11-06T02:52:06.140Z,10.24
2022-11-06T02:54:36.753Z,10.41
2022-11-06T02:59:53.399Z,10.24
2022-11-06T03:02:24.486Z,10.24
2022-11-06T03:04:54.664Z,10.32
2022-11-06T03:07:28.678Z,10.32
2022-11-06T03:09:56.580Z,10.36
2022-11-06T03:12:29.161Z,10.41
2022-11-06T03:15:00.388Z,10.37
2022-11-06T03:17:35.473Z,10.35
2022-11-06T03:20:07.721Z,10.26
2022-11-06T03:22:40.169Z,10.29
2022-11-06T03:25:16.571Z,10.28
2022-11-06T03:27:51.023Z,10.29
2022-11-06T03:30:18.983Z,10.32
2022-11-06T03:32:50.159Z,10.30
2022-11-06T03:35:23.480Z,10.34
2022-11-06T03:37:55.874Z,10.24
2022-11-06T03:40:25.279Z,10.38
2022-11-06T03:42:56.765Z,10.23
2022-11-06T03:45:25.700Z,10.16
2022-11-06T03:47:56.272Z,10.25
2022-11-06T03:50:27.831Z,10.27
2022-11-06T03:52:58.594Z,10.23
2022-11-06T03:55:29.609Z,10.24
2022-11-06T03:58:03.164Z,10.30
2022-11-06T04:00:31.629Z,10.39
2022-11-06T04:03:05.617Z,10.49
2022-11-06T04:05:37.814Z,10.44
2022-11-06T04:08:32.915Z,10.34
2022-11-06T04:11:20.440Z,10.28
2022-11-06T04:14:03.945Z,10.32
2022-11-06T04:16:35.021Z,10.27
2022-11-06T04:19:03.563Z,10.33
2022-11-06T04:21:44.749Z,10.46
2022-11-06T04:24:52.420Z,10.41
2022-11-06T04:27:30.578Z,10.41
2022-11-06T04:30:08.634Z,10.40
2022-11-06T04:32:46.400Z,10.28
2022-11-06T04:35:18.835Z,10.28
2022-11-06T04:37:52.072Z,10.36
2022-11-06T04:40:24.858Z,10.37
2022-11-06T04:42:56.539Z,10.32
2022-11-06T04:45:28.189Z,10.26
2022-11-06T04:47:56.425Z,10.25
2022-11-06T04:50:24.612Z,10.26
2022-11-06T04:52:53.016Z,10.20
2022-11-06T04:55:21.672Z,10.30
2022-11-06T04:57:49.460Z,10.29
2022-11-06T05:00:18.351Z,10.31
2022-11-06T05:02:47.450Z,10.41
2022-11-06T05:05:15.186Z,10.32
2022-11-06T05:07:42.922Z,10.29
2022-11-06T05:10:10.775Z,10.35
2022-11-06T05:12:38.502Z,10.30
2022-11-06T05:15:07.367Z,10.39
2022-11-06T05:17:36.620Z,10.36
2022-11-06T05:20:07.329Z,10.33
2022-11-06T05:22:52.471Z,10.30
2022-11-06T05:25:20.314Z,10.35
2022-11-06T05:27:48.026Z,10.22
2022-11-06T05:30:15.870Z,10.24
2022-11-06T05:32:43.583Z,10.24
2022-11-06T05:35:12.800Z,10.20
2022-11-06T05:37:40.514Z,10.19
2022-11-06T05:40:08.744Z,10.15
2022-11-06T05:42:40.574Z,10.28
2022-11-06T05:45:09.341Z,10.17
2022-11-06T05:47:37.356Z,10.14
2022-11-06T05:50:05.540Z,10.15
2022-11-06T05:52:35.441Z,10.16
2022-11-06T05:55:03.167Z,10.25
2022-11-06T05:57:31.187Z,10.22
2022-11-06T05:59:58.938Z,10.14
2022-11-06T06:02:26.883Z,10.29
2022-11-06T06:04:54.716Z,10.34
2022-11-06T06:07:22.432Z,10.29
2022-11-06T06:09:51.536Z,10.28
2022-11-06T06:12:19.300Z,10.32
2022-11-06T06:14:50.437Z,10.33
2022-11-06T06:17:18.450Z,10.33
2022-11-06T06:19:46.221Z,10.26
2022-11-06T06:22:13.963Z,10.29
2022-11-06T06:24:42.276Z,10.29
2022-11-06T06:27:11.412Z,10.22
2022-11-06T06:29:39.117Z,10.21
2022-11-06T06:32:07.246Z,10.40
2022-11-06T06:34:34.980Z,10.60
2022-11-06T06:37:04.740Z,10.60
2022-11-06T06:39:34.321Z,10.57
2022-11-06T06:42:02.028Z,10.58
2022-11-06T06:44:31.185Z,10.54
2022-11-06T06:46:58.889Z,10.57
2022-11-06T06:49:26.599Z,10.42
2022-11-06T06:51:55.159Z,10.44
2022-11-06T06:54:22.876Z,10.52
2022-11-06T06:56:50.593Z,10.52
2022-11-06T06:59:18.388Z,10.56
2022-11-06T07:01:48.112Z,10.35
2022-11-06T07:04:15.883Z,10.52
2022-11-06T07:06:43.613Z,10.40
2022-11-06T07:09:11.424Z,10.56
2022-11-06T07:11:39.208Z,10.52
2022-11-06T07:14:06.951Z,10.38
2022-11-06T07:16:34.667Z,10.49
2022-11-06T07:19:03.771Z,10.51
2022-11-06T07:21:31.503Z,10.44
2022-11-06T07:23:59.235Z,10.53
2022-11-06T07:26:26.925Z,10.44
2022-11-06T07:28:54.648Z,10.52
2022-11-06T07:31:22.352Z,10.52
2022-11-06T07:33:50.066Z,10.61
2022-11-06T07:36:19.545Z,10.48
2022-11-06T07:38:47.365Z,10.65
2022-11-06T07:41:15.842Z,10.52
2022-11-06T07:43:44.295Z,10.61
2022-11-06T07:46:13.603Z,10.63
2022-11-06T07:48:41.332Z,10.58
2022-11-06T07:51:11.551Z,10.61
2022-11-06T07:53:41.177Z,10.62
2022-11-06T07:56:09.595Z,10.70
2022-11-06T07:58:37.348Z,10.60
2022-11-06T08:01:05.513Z,10.64
2022-11-06T08:03:34.249Z,10.60
2022-11-06T08:06:04.857Z,10.60
2022-11-06T08:08:32.692Z,10.65
2022-11-06T08:11:04.574Z,10.61
2022-11-06T08:13:33.803Z,10.88
2022-11-06T08:16:04.767Z,10.82
2022-11-06T08:18:32.571Z,10.71
2022-11-06T08:21:00.334Z,10.82
2022-11-06T08:23:28.436Z,10.86
2022-11-06T08:25:56.654Z,10.84
2022-11-06T08:28:26.340Z,10.81
2022-11-06T08:30:54.624Z,10.88
2022-11-06T08:33:23.092Z,10.83
2022-11-06T08:35:51.026Z,10.85
2022-11-06T08:38:19.054Z,10.81
2022-11-06T08:40:52.291Z,10.83
2022-11-06T08:43:23.419Z,10.90
2022-11-06T08:45:52.633Z,10.83
2022-11-06T08:48:20.457Z,10.82
2022-11-06T08:50:48.188Z,10.74
2022-11-06T08:53:16.220Z,10.76
2022-11-06T08:55:44.365Z,10.97
2022-11-06T08:58:12.094Z,10.95
2022-11-06T09:00:39.932Z,10.91
2022-11-06T09:03:11.840Z,11.03
2022-11-06T09:05:40.819Z,10.85
2022-11-06T09:08:09.197Z,11.10
2022-11-06T09:10:38.524Z,11.11
2022-11-06T09:13:06.363Z,11.09
2022-11-06T09:15:34.204Z,11.12
2022-11-06T09:18:03.531Z,11.31
2022-11-06T09:20:32.595Z,11.41
2022-11-06T09:23:03.140Z,11.36
2022-11-06T09:25:31.252Z,11.47
2022-11-06T09:27:59.827Z,11.62
2022-11-06T09:30:29.193Z,11.74
2022-11-06T09:35:55.845Z,11.76
2022-11-06T09:38:26.978Z,11.78
2022-11-06T09:40:58.118Z,11.76
2022-11-06T09:44:03.099Z,11.74
2022-11-06T09:46:24.179Z,11.82
2022-11-06T09:48:56.738Z,11.88
2022-11-06T09:51:32.601Z,11.90
2022-11-06T09:54:06.243Z,11.74
2022-11-06T09:56:35.724Z,11.81
2022-11-06T09:59:11.792Z,11.85
2022-11-06T10:01:43.425Z,11.95
2022-11-06T10:04:21.553Z,12.00
2022-11-06T10:06:50.811Z,11.82
2022-11-06T10:09:18.590Z,11.95
2022-11-06T10:11:53.294Z,11.90
2022-11-06T10:14:32.650Z,11.99
2022-11-06T10:17:04.488Z,11.98
2022-11-06T10:19:41.325Z,12.09
2022-11-06T10:22:15.363Z,12.01
2022-11-06T10:24:47.288Z,12.15
2022-11-06T10:27:17.817Z,12.20
2022-11-06T10:30:03.919Z,12.18
2022-11-06T10:32:50.229Z,12.30
2022-11-06T10:35:21.321Z,12.44
2022-11-06T10:37:54.599Z,12.51
2022-11-06T10:40:25.581Z,12.58
2022-11-06T10:43:00.362Z,12.69
2022-11-06T10:45:30.573Z,12.65
2022-11-06T10:48:06.277Z,12.74
2022-11-06T10:50:43.209Z,12.86
2022-11-06T10:53:20.305Z,12.93
2022-11-06T10:56:08.242Z,13.10
2022-11-06T10:58:37.519Z,13.00
2022-11-06T11:01:07.020Z,13.14
2022-11-06T11:03:36.896Z,13.05
2022-11-06T11:06:06.293Z,13.06
2022-11-06T11:08:41.952Z,12.98
2022-11-06T11:11:24.425Z,13.00
2022-11-06T11:14:16.411Z,13.07
2022-11-06T11:16:45.988Z,13.19
2022-11-06T11:19:24.464Z,13.03
2022-11-06T11:21:57.331Z,13.21
2022-11-06T11:24:26.968Z,13.13
2022-11-06T11:26:56.292Z,13.22
2022-11-06T11:29:25.557Z,13.09
2022-11-06T11:31:55.305Z,13.16
2022-11-06T11:34:25.138Z,13.16
2022-11-06T11:36:58.689Z,13.21
2022-11-06T11:39:30.820Z,13.11
2022-11-06T11:42:18.687Z,13.17
2022-11-06T11:44:46.511Z,13.24
2022-11-06T11:47:22.336Z,13.26
2022-11-06T11:49:50.267Z,13.34
2022-11-06T11:52:21.204Z,13.26
2022-11-06T11:54:53.218Z,13.31
2022-11-06T11:57:22.959Z,13.30
2022-11-06T11:59:52.834Z,13.23
2022-11-06T12:02:26.785Z,13.15
2022-11-06T12:04:58.238Z,13.19
2022-11-06T12:07:27.900Z,13.31
2022-11-06T12:09:57.191Z,13.39
2022-11-06T12:12:26.186Z,13.33
2022-11-06T12:15:07.474Z,13.35
2022-11-06T12:17:37.704Z,13.38
2022-11-06T12:20:12.577Z,13.43
2022-11-06T12:22:43.439Z,13.39
2022-11-06T12:25:16.954Z,13.46
2022-11-06T12:27:48.096Z,13.45
2022-11-06T12:30:17.804Z,13.47
2022-11-06T12:32:53.993Z,13.31
2022-11-06T12:35:25.749Z,13.24
2022-11-06T12:37:59.554Z,13.15
2022-11-06T12:40:32.270Z,13.24
2022-11-06T12:43:05.350Z,13.43
2022-11-06T12:45:44.172Z,13.50
2022-11-06T12:48:20.388Z,13.51
2022-11-06T12:50:50.816Z,13.48
2022-11-06T12:53:32.260Z,13.48
2022-11-06T12:56:08.353Z,13.48
2022-11-06T12:58:53.331Z,13.45
2022-11-06T13:01:28.683Z,13.31
2022-11-06T13:04:14.067Z,13.34
2022-11-06T13:07:11.650Z,13.38
2022-11-06T13:09:43.664Z,13.39
2022-11-06T13:12:17.369Z,13.46
2022-11-06T13:14:53.329Z,13.53
2022-11-06T13:17:25.666Z,13.61
2022-11-06T13:19:58.124Z,13.56
2022-11-06T13:22:29.312Z,13.60
2022-11-06T13:25:01.067Z,13.55
2022-11-06T13:27:37.077Z,13.47
2022-11-06T13:30:07.202Z,13.59
2022-11-06T13:32:35.448Z,13.66
2022-11-06T13:35:03.408Z,13.62
2022-11-06T13:37:38.481Z,13.54
2022-11-06T13:40:16.339Z,13.47
2022-11-06T13:42:50.139Z,13.58
2022-11-06T13:45:18.771Z,13.58
2022-11-06T13:47:56.718Z,13.45
2022-11-06T13:50:30.915Z,13.42
2022-11-06T13:53:03.665Z,13.45
2022-11-06T13:55:40.332Z,13.53
2022-11-06T13:58:23.622Z,13.44
2022-11-06T14:01:01.783Z,13.44
2022-11-06T14:04:03.019Z,13.43
2022-11-06T14:06:32.593Z,13.26
2022-11-06T14:09:04.124Z,13.15
2022-11-06T14:11:33.426Z,13.10
2022-11-06T14:14:04.576Z,13.14
2022-11-06T14:16:33.800Z,13.11
2022-11-06T14:19:05.223Z,13.15
2022-11-06T14:21:48.835Z,13.00
2022-11-06T14:24:31.721Z,13.01
2022-11-06T14:27:00.362Z,13.04
2022-11-06T14:29:59.523Z,13.06
2022-11-06T14:32:36.442Z,13.11
2022-11-06T14:35:49.109Z,13.19
2022-11-06T14:38:42.713Z,13.08
2022-11-06T14:41:47.981Z,12.99
2022-11-06T14:44:25.020Z,13.08
2022-11-06T14:46:56.207Z,13.06
2022-11-06T14:49:30.667Z,13.02
2022-11-06T14:51:59.908Z,12.98
2022-11-06T14:54:27.650Z,12.96
2022-11-06T14:56:56.169Z,12.91
2022-11-06T14:59:31.498Z,12.65
2022-11-06T15:02:05.612Z,12.72
2022-11-06T15:04:35.676Z,12.73
2022-11-06T15:07:11.451Z,12.58
2022-11-06T15:09:47.185Z,12.52
2022-11-06T15:12:14.992Z,12.59
2022-11-06T15:15:00.317Z,12.51
2022-11-06T15:17:37.394Z,12.45
2022-11-06T15:20:27.654Z,12.49
2022-11-06T15:23:00.935Z,12.54
2022-11-06T15:25:31.079Z,12.53
2022-11-06T15:28:05.919Z,12.50
2022-11-06T15:30:41.181Z,12.51
2022-11-06T15:33:14.841Z,12.47
2022-11-06T15:35:43.064Z,12.49
2022-11-06T15:38:14.549Z,12.38
2022-11-06T15:40:43.338Z,12.50
2022-11-06T15:43:26.450Z,12.41
2022-11-06T15:46:08.871Z,12.33
2022-11-06T15:48:38.167Z,12.33
2022-11-06T15:51:19.576Z,12.37
2022-11-06T15:53:47.311Z,12.59
2022-11-06T15:56:15.747Z,12.51
2022-11-06T15:58:43.560Z,12.35
2022-11-06T16:01:12.362Z,12.46
2022-11-06T16:03:50.271Z,12.51
2022-11-06T16:06:18.571Z,12.45
2022-11-06T16:08:46.797Z,12.28
2022-11-06T16:11:16.776Z,12.40
2022-11-06T16:13:46.484Z,12.39
2022-11-06T16:16:33.717Z,12.44
2022-11-06T16:19:04.559Z,12.31
2022-11-06T16:21:34.065Z,12.27
2022-11-06T16:24:04.701Z,12.25
2022-11-06T16:26:38.225Z,12.32
2022-11-06T16:29:11.269Z,12.31
2022-11-06T16:31:40.331Z,12.30
2022-11-06T16:34:21.553Z,12.33
2022-11-06T16:36:52.473Z,12.23
2022-11-06T16:39:50.993Z,12.31
2022-11-06T16:42:27.648Z,12.24
2022-11-06T16:45:17.094Z,12.27
2022-11-06T16:48:22.469Z,12.24
2022-11-06T16:50:53.377Z,12.19
2022-11-06T16:53:21.820Z,12.14
2022-11-06T16:55:57.080Z,12.16
2022-11-06T16:58:25.251Z,12.11
2022-11-06T17:00:58.823Z,12.15
2022-11-06T17:03:29.757Z,12.11
2022-11-06T17:05:59.274Z,12.15
2022-11-06T17:08:35.679Z,12.15
2022-11-06T17:11:20.492Z,12.09
2022-11-06T17:13:49.388Z,12.35
2022-11-06T17:16:18.841Z,12.36
2022-11-06T17:18:47.629Z,12.52
2022-11-06T17:21:18.612Z,12.45
2022-11-06T17:23:47.750Z,12.42
2022-11-06T17:26:18.138Z,12.32
2022-11-06T17:28:46.175Z,12.34
2022-11-06T17:31:15.251Z,12.54
2022-11-06T17:33:43.636Z,12.44
2022-11-06T17:36:18.359Z,12.44
2022-11-06T17:38:46.605Z,12.24
2022-11-06T17:41:29.411Z,12.30
2022-11-06T17:43:57.802Z,12.26
2022-11-06T17:46:27.074Z,12.09
2022-11-06T17:48:55.144Z,12.14
2022-11-06T17:51:44.091Z,11.94
2022-11-06T17:54:12.444Z,11.90
2022-11-06T17:56:40.977Z,11.88
2022-11-06T17:59:09.704Z,11.99
2022-11-06T18:01:37.575Z,11.87
2022-11-06T18:04:08.197Z,11.91
2022-11-06T18:06:37.605Z,11.76
2022-11-06T18:09:07.053Z,11.84
2022-11-06T18:11:34.980Z,11.71
2022-11-06T18:14:05.140Z,11.77
2022-11-06T18:16:38.451Z,11.61
2022-11-06T18:19:09.525Z,11.59
2022-11-06T18:21:39.102Z,11.65
2022-11-06T18:24:08.227Z,11.59
2022-11-06T18:26:37.104Z,11.55
2022-11-06T18:29:05.092Z,11.59
2022-11-06T18:31:32.863Z,11.56
2022-11-06T18:34:00.607Z,11.57
2022-11-06T18:36:28.351Z,11.56
2022-11-06T18:38:57.430Z,11.57
2022-11-06T18:41:25.133Z,11.66
2022-11-06T18:43:56.443Z,11.75
2022-11-06T18:46:24.344Z,11.58
2022-11-06T18:48:52.077Z,11.67
2022-11-06T18:51:33.851Z,11.63
2022-11-06T18:54:05.521Z,11.65
2022-11-06T18:56:33.584Z,11.66
2022-11-06T18:59:03.004Z,11.67
2022-11-06T19:01:30.808Z,11.60
2022-11-06T19:03:58.608Z,11.60
2022-11-06T19:06:26.381Z,11.48
2022-11-06T19:08:54.129Z,11.51
2022-11-06T19:11:23.290Z,11.65
2022-11-06T19:13:51.033Z,11.45
2022-11-06T19:16:19.668Z,11.45
2022-11-06T19:21:30.819Z,11.41
2022-11-06T19:24:03.832Z,11.44
2022-11-06T19:26:34.269Z,11.44
2022-11-06T19:29:03.906Z,11.47
2022-11-06T19:31:33.137Z,11.63
2022-11-06T19:34:01.749Z,11.53
2022-11-06T19:36:33.542Z,11.58
2022-11-06T19:39:01.276Z,11.50
2022-11-06T19:41:30.091Z,11.48
2022-11-06T19:43:59.231Z,11.53
2022-11-06T19:46:32.385Z,11.43
2022-11-06T19:49:04.976Z,11.46
2022-11-06T19:51:33.261Z,11.62
2022-11-06T19:54:03.408Z,11.50
2022-11-06T19:56:31.167Z,11.51
2022-11-06T19:59:01.088Z,11.44
2022-11-06T20:01:29.968Z,11.42
2022-11-06T20:03:57.812Z,11.40
2022-11-06T20:06:27.262Z,11.41
2022-11-06T20:08:55.046Z,11.46
2022-11-06T20:11:22.772Z,11.44
2022-11-06T20:13:50.500Z,11.51
2022-11-06T20:16:21.209Z,11.51
2022-11-06T20:18:52.116Z,11.40
2022-11-06T20:21:19.965Z,11.37
2022-11-06T20:23:47.771Z,11.35
2022-11-06T20:26:16.267Z,11.47
2022-11-06T20:28:46.579Z,11.41
2022-11-06T20:31:18.448Z,11.41
2022-11-06T20:33:47.804Z,11.44
2022-11-06T20:36:18.768Z,11.33
2022-11-06T20:38:46.992Z,11.41
2022-11-06T20:41:15.428Z,11.44
2022-11-06T20:43:43.865Z,11.42
2022-11-06T20:46:12.628Z,11.38
2022-11-06T20:48:40.961Z,11.46
2022-11-06T20:51:12.768Z,11.47
2022-11-06T20:53:41.266Z,11.43
2022-11-06T20:56:11.445Z,11.45
2022-11-06T20:58:39.280Z,11.50
2022-11-06T21:01:08.940Z,11.42
2022-11-06T21:03:37.141Z,11.48
2022-11-06T21:06:05.213Z,11.50
2022-11-06T21:08:35.873Z,11.46
2022-11-06T21:11:06.790Z,11.47
2022-11-06T21:13:35.058Z,11.37
2022-11-06T21:16:07.890Z,11.42
2022-11-06T21:18:36.634Z,11.36
2022-11-06T21:21:07.053Z,11.33
2022-11-06T21:23:36.604Z,11.31
2022-11-06T21:26:06.829Z,11.20
2022-11-06T21:28:34.587Z,11.22
2022-11-06T21:31:04.554Z,11.18
2022-11-06T21:33:32.324Z,11.15
2022-11-06T21:36:07.351Z,11.10
2022-11-06T21:38:36.596Z,11.12
2022-11-06T21:41:07.244Z,11.12
2022-11-06T21:43:35.372Z,11.24
2022-11-06T21:46:04.664Z,11.19
2022-11-06T21:48:45.883Z,11.10
2022-11-06T21:51:16.294Z,10.84
2022-11-06T21:54:04.911Z,10.92
2022-11-06T21:56:33.035Z,10.95
2022-11-06T21:59:03.016Z,10.89
2022-11-06T22:01:32.201Z,10.85
2022-11-06T22:04:00.428Z,10.73
2022-11-06T22:06:30.342Z,10.73
2022-11-06T22:09:01.069Z,10.74
2022-11-06T22:11:31.163Z,10.75
2022-11-06T22:14:00.290Z,10.73
2022-11-06T22:16:32.846Z,10.78
2022-11-06T22:19:00.883Z,10.65
2022-11-06T22:21:30.896Z,10.72
2022-11-06T22:24:00.080Z,10.70
2022-11-06T22:26:31.609Z,10.69
2022-11-06T22:29:03.470Z,10.66
2022-11-06T22:31:31.448Z,10.61
2022-11-06T22:33:59.438Z,10.67
2022-11-06T22:36:27.410Z,10.73
2022-11-06T22:38:55.253Z,10.72
2022-11-06T22:41:25.369Z,10.65
2022-11-06T22:43:53.595Z,10.67
2022-11-06T22:46:23.089Z,10.79
2022-11-06T22:48:51.668Z,10.81
2022-11-06T22:51:21.032Z,10.72
2022-11-06T22:53:50.177Z,10.68
2022-11-06T22:56:18.797Z,10.58
2022-11-06T22:58:47.965Z,10.68
2022-11-06T23:01:15.805Z,10.69
2022-11-06T23:03:46.386Z,10.68
2022-11-06T23:06:14.141Z,10.64
2022-11-06T23:08:46.729Z,10.64
2022-11-06T23:11:17.149Z,10.58
2022-11-06T23:13:45.176Z,10.57
2022-11-06T23:16:17.772Z,10.59
2022-11-06T23:18:46.233Z,10.64
2022-11-06T23:21:14.423Z,10.58
2022-11-06T23:23:42.932Z,10.51
2022-11-06T23:26:12.172Z,10.52
2022-11-06T23:28:39.896Z,10.53
2022-11-06T23:31:08.329Z,10.50
2022-11-06T23:33:38.858Z,10.59
2022-11-06T23:36:07.304Z,10.63
2022-11-06T23:38:35.202Z,10.65
2022-11-06T23:41:27.291Z,10.66
2022-11-06T23:43:55.259Z,10.65
2022-11-06T23:46:23.440Z,10.68
2022-11-06T23:48:52.973Z,10.58
2022-11-06T23:51:21.351Z,10.66
2022-11-06T23:53:49.174Z,10.72
2022-11-06T23:56:16.904Z,10.68
2022-11-06T23:58:44.958Z,10.74
